sensor_id;sensor_type;location;lat;lon;timestamp;P1;durP1;ratioP1;P2;durP2;ratioP2
19863;SDS011;10094;48.820;9.226;2022-07-11T00:06:04;2.15;;;1.30;;
19863;SDS011;10094;48.820;9.226;2022-07-11T00:12:47;3.28;;;1.50;;
19863;SDS011;10094;48.820;9.226;2022-07-11T00:19:29;2.50;;;1.60;;
19863;SDS011;10094;48.820;9.226;2022-07-11T00:26:12;4.20;;;1.63;;
19863;SDS011;10094;48.820;9.226;2022-07-11T00:32:54;2.20;;;1.42;;
19863;SDS011;10094;48.820;9.226;2022-07-11T00:39:37;3.67;;;1.77;;
19863;SDS011;10094;48.820;9.226;2022-07-11T00:46:19;2.70;;;1.42;;
19863;SDS011;10094;48.820;9.226;2022-07-11T00:53:02;7.03;;;2.90;;
19863;SDS011;10094;48.820;9.226;2022-07-11T00:59:44;7.65;;;2.80;;
19863;SDS011;10094;48.820;9.226;2022-07-11T01:06:28;6.13;;;3.45;;
19863;SDS011;10094;48.820;9.226;2022-07-11T01:13:11;5.35;;;2.95;;
19863;SDS011;10094;48.820;9.226;2022-07-11T01:19:53;8.48;;;3.45;;
19863;SDS011;10094;48.820;9.226;2022-07-11T01:26:36;6.95;;;3.85;;
19863;SDS011;10094;48.820;9.226;2022-07-11T01:33:19;5.15;;;3.50;;
19863;SDS011;10094;48.820;9.226;2022-07-11T01:40:01;6.15;;;3.70;;
19863;SDS011;10094;48.820;9.226;2022-07-11T01:46:44;5.45;;;3.22;;
19863;SDS011;10094;48.820;9.226;2022-07-11T01:53:26;5.78;;;2.90;;
19863;SDS011;10094;48.820;9.226;2022-07-11T02:00:09;4.75;;;3.05;;
19863;SDS011;10094;48.820;9.226;2022-07-11T02:06:53;5.07;;;2.60;;
19863;SDS011;10094;48.820;9.226;2022-07-11T02:13:35;3.45;;;2.30;;
19863;SDS011;10094;48.820;9.226;2022-07-11T02:20:18;3.60;;;2.20;;
19863;SDS011;10094;48.820;9.226;2022-07-11T02:27:01;8.88;;;6.18;;
19863;SDS011;10094;48.820;9.226;2022-07-11T02:33:43;4.78;;;2.38;;
19863;SDS011;10094;48.820;9.226;2022-07-11T02:40:27;5.68;;;2.70;;
19863;SDS011;10094;48.820;9.226;2022-07-11T02:47:11;2.63;;;2.17;;
19863;SDS011;10094;48.820;9.226;2022-07-11T02:53:56;3.47;;;2.35;;
19863;SDS011;10094;48.820;9.226;2022-07-11T03:00:38;3.58;;;2.50;;
19863;SDS011;10094;48.820;9.226;2022-07-11T03:07:57;2.90;;;1.98;;
19863;SDS011;10094;48.820;9.226;2022-07-11T03:14:39;9.23;;;2.90;;
19863;SDS011;10094;48.820;9.226;2022-07-11T03:21:22;8.57;;;3.40;;
19863;SDS011;10094;48.820;9.226;2022-07-11T03:28:07;7.68;;;3.15;;
19863;SDS011;10094;48.820;9.226;2022-07-11T03:34:54;6.95;;;3.05;;
19863;SDS011;10094;48.820;9.226;2022-07-11T03:41:56;4.30;;;2.60;;
19863;SDS011;10094;48.820;9.226;2022-07-11T03:48:38;4.43;;;2.88;;
19863;SDS011;10094;48.820;9.226;2022-07-11T03:55:21;7.80;;;3.13;;
19863;SDS011;10094;48.820;9.226;2022-07-11T04:02:03;5.13;;;2.63;;
19863;SDS011;10094;48.820;9.226;2022-07-11T04:08:46;6.25;;;3.08;;
19863;SDS011;10094;48.820;9.226;2022-07-11T04:15:29;9.35;;;2.90;;
19863;SDS011;10094;48.820;9.226;2022-07-11T04:22:47;4.13;;;2.67;;
19863;SDS011;10094;48.820;9.226;2022-07-11T04:29:32;5.85;;;2.85;;
19863;SDS011;10094;48.820;9.226;2022-07-11T04:36:14;5.63;;;3.33;;
19863;SDS011;10094;48.820;9.226;2022-07-11T04:43:14;6.93;;;3.13;;
19863;SDS011;10094;48.820;9.226;2022-07-11T04:49:57;5.85;;;3.17;;
19863;SDS011;10094;48.820;9.226;2022-07-11T04:56:39;3.85;;;2.85;;
19863;SDS011;10094;48.820;9.226;2022-07-11T05:03:22;8.60;;;3.10;;
19863;SDS011;10094;48.820;9.226;2022-07-11T05:10:06;5.70;;;3.42;;
19863;SDS011;10094;48.820;9.226;2022-07-11T05:16:49;5.10;;;3.40;;
19863;SDS011;10094;48.820;9.226;2022-07-11T05:23:32;5.82;;;3.30;;
19863;SDS011;10094;48.820;9.226;2022-07-11T05:30:14;5.85;;;3.33;;
19863;SDS011;10094;48.820;9.226;2022-07-11T05:36:57;4.05;;;3.63;;
19863;SDS011;10094;48.820;9.226;2022-07-11T05:43:39;6.22;;;3.33;;
19863;SDS011;10094;48.820;9.226;2022-07-11T05:50:23;7.07;;;3.40;;
19863;SDS011;10094;48.820;9.226;2022-07-11T05:57:05;5.80;;;3.60;;
19863;SDS011;10094;48.820;9.226;2022-07-11T06:03:48;6.25;;;3.72;;
19863;SDS011;10094;48.820;9.226;2022-07-11T06:10:31;5.65;;;3.50;;
19863;SDS011;10094;48.820;9.226;2022-07-11T06:17:16;5.65;;;3.60;;
19863;SDS011;10094;48.820;9.226;2022-07-11T06:23:58;8.27;;;3.63;;
19863;SDS011;10094;48.820;9.226;2022-07-11T06:30:41;3.47;;;3.03;;
19863;SDS011;10094;48.820;9.226;2022-07-11T06:37:23;4.90;;;2.92;;
19863;SDS011;10094;48.820;9.226;2022-07-11T06:44:06;5.38;;;3.10;;
19863;SDS011;10094;48.820;9.226;2022-07-11T06:50:48;4.30;;;2.75;;
19863;SDS011;10094;48.820;9.226;2022-07-11T06:57:31;4.70;;;3.20;;
19863;SDS011;10094;48.820;9.226;2022-07-11T07:04:13;4.43;;;3.03;;
19863;SDS011;10094;48.820;9.226;2022-07-11T07:10:56;4.85;;;3.00;;
19863;SDS011;10094;48.820;9.226;2022-07-11T07:17:43;4.22;;;3.03;;
19863;SDS011;10094;48.820;9.226;2022-07-11T07:24:26;5.50;;;3.05;;
19863;SDS011;10094;48.820;9.226;2022-07-11T07:31:08;6.15;;;4.00;;
19863;SDS011;10094;48.820;9.226;2022-07-11T07:37:57;6.15;;;4.05;;
19863;SDS011;10094;48.820;9.226;2022-07-11T07:44:42;5.55;;;3.88;;
19863;SDS011;10094;48.820;9.226;2022-07-11T07:51:25;8.05;;;3.60;;
19863;SDS011;10094;48.820;9.226;2022-07-11T07:58:08;3.78;;;3.20;;
19863;SDS011;10094;48.820;9.226;2022-07-11T08:04:50;5.07;;;2.60;;
19863;SDS011;10094;48.820;9.226;2022-07-11T08:11:33;4.82;;;2.53;;
19863;SDS011;10094;48.820;9.226;2022-07-11T08:18:17;3.67;;;2.63;;
19863;SDS011;10094;48.820;9.226;2022-07-11T08:25:01;2.70;;;2.38;;
19863;SDS011;10094;48.820;9.226;2022-07-11T08:31:44;3.30;;;2.40;;
19863;SDS011;10094;48.820;9.226;2022-07-11T08:38:27;2.92;;;1.40;;
19863;SDS011;10094;48.820;9.226;2022-07-11T08:45:13;1.90;;;1.67;;
19863;SDS011;10094;48.820;9.226;2022-07-11T08:51:57;2.42;;;1.70;;
19863;SDS011;10094;48.820;9.226;2022-07-11T08:58:41;1.60;;;1.50;;
19863;SDS011;10094;48.820;9.226;2022-07-11T09:05:34;2.92;;;1.85;;
19863;SDS011;10094;48.820;9.226;2022-07-11T09:12:17;1.70;;;1.50;;
19863;SDS011;10094;48.820;9.226;2022-07-11T09:19:01;2.88;;;1.50;;
19863;SDS011;10094;48.820;9.226;2022-07-11T09:26:03;1.42;;;1.33;;
19863;SDS011;10094;48.820;9.226;2022-07-11T09:33:04;2.55;;;1.30;;
19863;SDS011;10094;48.820;9.226;2022-07-11T09:39:48;2.58;;;1.50;;
19863;SDS011;10094;48.820;9.226;2022-07-11T09:46:31;1.77;;;1.48;;
19863;SDS011;10094;48.820;9.226;2022-07-11T09:53:19;1.52;;;1.35;;
19863;SDS011;10094;48.820;9.226;2022-07-11T10:00:03;1.52;;;1.25;;
19863;SDS011;10094;48.820;9.226;2022-07-11T10:06:47;1.63;;;1.40;;
19863;SDS011;10094;48.820;9.226;2022-07-11T10:13:29;1.35;;;1.25;;
19863;SDS011;10094;48.820;9.226;2022-07-11T10:27:16;2.00;;;1.70;;
19863;SDS011;10094;48.820;9.226;2022-07-11T10:34:07;1.85;;;1.45;;
19863;SDS011;10094;48.820;9.226;2022-07-11T10:41:03;1.52;;;1.42;;
19863;SDS011;10094;48.820;9.226;2022-07-11T10:47:45;2.25;;;1.40;;
19863;SDS011;10094;48.820;9.226;2022-07-11T11:08:53;1.60;;;1.30;;
19863;SDS011;10094;48.820;9.226;2022-07-11T11:22:24;2.65;;;1.85;;
19863;SDS011;10094;48.820;9.226;2022-07-11T11:29:06;1.95;;;1.50;;
19863;SDS011;10094;48.820;9.226;2022-07-11T11:42:41;1.80;;;1.52;;
19863;SDS011;10094;48.820;9.226;2022-07-11T11:49:24;1.65;;;1.55;;
19863;SDS011;10094;48.820;9.226;2022-07-11T11:56:20;2.53;;;1.40;;
19863;SDS011;10094;48.820;9.226;2022-07-11T12:03:21;2.10;;;1.58;;
19863;SDS011;10094;48.820;9.226;2022-07-11T12:10:04;1.77;;;1.58;;
19863;SDS011;10094;48.820;9.226;2022-07-11T12:16:47;2.22;;;1.80;;
19863;SDS011;10094;48.820;9.226;2022-07-11T12:23:35;1.95;;;1.65;;
19863;SDS011;10094;48.820;9.226;2022-07-11T12:30:21;1.92;;;1.73;;
19863;SDS011;10094;48.820;9.226;2022-07-11T12:37:07;2.08;;;1.90;;
19863;SDS011;10094;48.820;9.226;2022-07-11T12:44:01;2.63;;;1.75;;
19863;SDS011;10094;48.820;9.226;2022-07-11T12:51:02;2.13;;;1.60;;
19863;SDS011;10094;48.820;9.226;2022-07-11T12:57:59;4.22;;;2.25;;
19863;SDS011;10094;48.820;9.226;2022-07-11T13:04:48;1.90;;;1.70;;
19863;SDS011;10094;48.820;9.226;2022-07-11T13:11:32;2.50;;;1.92;;
19863;SDS011;10094;48.820;9.226;2022-07-11T13:18:15;2.42;;;1.98;;
19863;SDS011;10094;48.820;9.226;2022-07-11T13:24:57;1.90;;;1.70;;
19863;SDS011;10094;48.820;9.226;2022-07-11T13:31:40;2.20;;;1.75;;
19863;SDS011;10094;48.820;9.226;2022-07-11T13:38:22;2.00;;;1.90;;
19863;SDS011;10094;48.820;9.226;2022-07-11T13:45:06;2.40;;;2.20;;
19863;SDS011;10094;48.820;9.226;2022-07-11T13:51:50;4.82;;;1.92;;
19863;SDS011;10094;48.820;9.226;2022-07-11T13:58:33;2.35;;;1.95;;
19863;SDS011;10094;48.820;9.226;2022-07-11T14:05:16;3.05;;;2.10;;
19863;SDS011;10094;48.820;9.226;2022-07-11T14:12:00;4.93;;;2.40;;
19863;SDS011;10094;48.820;9.226;2022-07-11T14:18:43;2.13;;;1.88;;
19863;SDS011;10094;48.820;9.226;2022-07-11T14:25:25;3.33;;;2.28;;
19863;SDS011;10094;48.820;9.226;2022-07-11T14:32:08;2.20;;;2.00;;
19863;SDS011;10094;48.820;9.226;2022-07-11T14:38:52;5.60;;;2.28;;
19863;SDS011;10094;48.820;9.226;2022-07-11T14:45:35;2.35;;;2.10;;
19863;SDS011;10094;48.820;9.226;2022-07-11T14:52:17;4.07;;;2.45;;
19863;SDS011;10094;48.820;9.226;2022-07-11T14:59:01;2.53;;;2.13;;
19863;SDS011;10094;48.820;9.226;2022-07-11T15:05:44;3.35;;;2.00;;
19863;SDS011;10094;48.820;9.226;2022-07-11T15:12:26;3.92;;;2.10;;
19863;SDS011;10094;48.820;9.226;2022-07-11T15:19:10;3.38;;;2.30;;
19863;SDS011;10094;48.820;9.226;2022-07-11T15:25:52;3.08;;;2.00;;
19863;SDS011;10094;48.820;9.226;2022-07-11T15:32:35;3.45;;;2.75;;
19863;SDS011;10094;48.820;9.226;2022-07-11T15:39:18;2.90;;;1.95;;
19863;SDS011;10094;48.820;9.226;2022-07-11T15:46:00;4.47;;;2.33;;
19863;SDS011;10094;48.820;9.226;2022-07-11T15:52:44;2.25;;;2.00;;
19863;SDS011;10094;48.820;9.226;2022-07-11T15:59:28;2.90;;;2.28;;
19863;SDS011;10094;48.820;9.226;2022-07-11T16:06:12;2.33;;;1.85;;
19863;SDS011;10094;48.820;9.226;2022-07-11T16:12:55;2.78;;;2.05;;
19863;SDS011;10094;48.820;9.226;2022-07-11T16:19:37;2.45;;;1.95;;
19863;SDS011;10094;48.820;9.226;2022-07-11T16:26:20;2.78;;;2.22;;
19863;SDS011;10094;48.820;9.226;2022-07-11T16:33:03;5.30;;;2.50;;
19863;SDS011;10094;48.820;9.226;2022-07-11T16:39:46;1.90;;;1.63;;
19863;SDS011;10094;48.820;9.226;2022-07-11T16:46:52;2.13;;;1.85;;
19863;SDS011;10094;48.820;9.226;2022-07-11T16:54:11;2.33;;;2.10;;
19863;SDS011;10094;48.820;9.226;2022-07-11T17:00:55;2.45;;;2.22;;
19863;SDS011;10094;48.820;9.226;2022-07-11T17:08:15;2.40;;;2.20;;
19863;SDS011;10094;48.820;9.226;2022-07-11T17:15:17;4.47;;;2.00;;
19863;SDS011;10094;48.820;9.226;2022-07-11T17:22:00;2.83;;;1.77;;
19863;SDS011;10094;48.820;9.226;2022-07-11T17:28:44;2.28;;;2.08;;
19863;SDS011;10094;48.820;9.226;2022-07-11T17:35:26;2.17;;;1.98;;
19863;SDS011;10094;48.820;9.226;2022-07-11T17:42:09;3.22;;;2.42;;
19863;SDS011;10094;48.820;9.226;2022-07-11T17:48:51;2.28;;;2.00;;
19863;SDS011;10094;48.820;9.226;2022-07-11T17:55:34;3.25;;;2.78;;
19863;SDS011;10094;48.820;9.226;2022-07-11T18:02:16;2.85;;;1.88;;
19863;SDS011;10094;48.820;9.226;2022-07-11T18:08:59;2.85;;;2.15;;
19863;SDS011;10094;48.820;9.226;2022-07-11T18:15:41;2.92;;;2.22;;
19863;SDS011;10094;48.820;9.226;2022-07-11T18:22:25;3.15;;;2.05;;
19863;SDS011;10094;48.820;9.226;2022-07-11T18:29:09;2.42;;;2.10;;
19863;SDS011;10094;48.820;9.226;2022-07-11T18:35:51;2.60;;;2.28;;
19863;SDS011;10094;48.820;9.226;2022-07-11T18:42:34;3.58;;;1.77;;
19863;SDS011;10094;48.820;9.226;2022-07-11T18:49:19;2.40;;;2.20;;
19863;SDS011;10094;48.820;9.226;2022-07-11T18:56:02;4.90;;;2.80;;
19863;SDS011;10094;48.820;9.226;2022-07-11T19:02:45;2.45;;;2.20;;
19863;SDS011;10094;48.820;9.226;2022-07-11T19:09:28;4.10;;;2.35;;
19863;SDS011;10094;48.820;9.226;2022-07-11T19:16:10;3.95;;;2.85;;
19863;SDS011;10094;48.820;9.226;2022-07-11T19:22:53;3.92;;;2.75;;
19863;SDS011;10094;48.820;9.226;2022-07-11T19:29:36;2.65;;;2.45;;
19863;SDS011;10094;48.820;9.226;2022-07-11T19:36:24;3.63;;;3.22;;
19863;SDS011;10094;48.820;9.226;2022-07-11T19:43:07;5.10;;;2.90;;
19863;SDS011;10094;48.820;9.226;2022-07-11T19:49:49;3.10;;;2.88;;
19863;SDS011;10094;48.820;9.226;2022-07-11T19:56:32;3.33;;;3.03;;
19863;SDS011;10094;48.820;9.226;2022-07-11T20:03:33;4.40;;;3.25;;
19863;SDS011;10094;48.820;9.226;2022-07-11T20:10:16;6.40;;;3.17;;
19863;SDS011;10094;48.820;9.226;2022-07-11T20:16:59;4.97;;;3.28;;
19863;SDS011;10094;48.820;9.226;2022-07-11T20:24:08;5.55;;;3.70;;
19863;SDS011;10094;48.820;9.226;2022-07-11T20:30:50;6.78;;;4.90;;
19863;SDS011;10094;48.820;9.226;2022-07-11T20:37:33;4.95;;;3.83;;
19863;SDS011;10094;48.820;9.226;2022-07-11T20:44:15;3.85;;;3.55;;
19863;SDS011;10094;48.820;9.226;2022-07-11T20:50:58;4.55;;;3.60;;
19863;SDS011;10094;48.820;9.226;2022-07-11T20:57:40;5.30;;;4.25;;
19863;SDS011;10094;48.820;9.226;2022-07-11T21:04:23;7.45;;;4.07;;
19863;SDS011;10094;48.820;9.226;2022-07-11T21:11:05;8.35;;;4.43;;
19863;SDS011;10094;48.820;9.226;2022-07-11T21:17:50;6.18;;;4.05;;
19863;SDS011;10094;48.820;9.226;2022-07-11T21:24:33;6.55;;;4.30;;
19863;SDS011;10094;48.820;9.226;2022-07-11T21:31:15;5.25;;;4.22;;
19863;SDS011;10094;48.820;9.226;2022-07-11T21:37:58;4.47;;;3.55;;
19863;SDS011;10094;48.820;9.226;2022-07-11T21:44:41;5.63;;;4.05;;
19863;SDS011;10094;48.820;9.226;2022-07-11T21:51:23;6.50;;;3.95;;
19863;SDS011;10094;48.820;9.226;2022-07-11T21:58:06;4.75;;;3.75;;
19863;SDS011;10094;48.820;9.226;2022-07-11T22:04:48;6.18;;;4.25;;
19863;SDS011;10094;48.820;9.226;2022-07-11T22:11:31;4.45;;;4.03;;
19863;SDS011;10094;48.820;9.226;2022-07-11T22:18:13;4.45;;;4.05;;
19863;SDS011;10094;48.820;9.226;2022-07-11T22:24:56;4.20;;;3.80;;
19863;SDS011;10094;48.820;9.226;2022-07-11T22:31:38;4.43;;;3.42;;
19863;SDS011;10094;48.820;9.226;2022-07-11T22:38:21;5.20;;;3.60;;
19863;SDS011;10094;48.820;9.226;2022-07-11T22:45:03;4.78;;;3.97;;
19863;SDS011;10094;48.820;9.226;2022-07-11T22:52:08;5.85;;;3.75;;
19863;SDS011;10094;48.820;9.226;2022-07-11T22:59:10;4.10;;;3.78;;
19863;SDS011;10094;48.820;9.226;2022-07-11T23:06:10;3.90;;;3.60;;
19863;SDS011;10094;48.820;9.226;2022-07-11T23:12:53;4.50;;;4.10;;
19863;SDS011;10094;48.820;9.226;2022-07-11T23:19:37;4.10;;;3.72;;
19863;SDS011;10094;48.820;9.226;2022-07-11T23:26:19;5.18;;;3.42;;
19863;SDS011;10094;48.820;9.226;2022-07-11T23:33:02;4.50;;;4.10;;
19863;SDS011;10094;48.820;9.226;2022-07-11T23:39:45;4.45;;;4.03;;
19863;SDS011;10094;48.820;9.226;2022-07-11T23:46:28;4.55;;;3.85;;
19863;SDS011;10094;48.820;9.226;2022-07-11T23:53:11;7.72;;;4.25;;
19863;SDS011;10094;48.820;9.226;2022-07-11T23:59:54;4.32;;;3.92;;
